Kezdőlap
METAR-TAF:

METAR-TAF

Repülőterek :

Graham Municipal Airport

Graham, Texas, Amerikai Egyesült Államok

földrajzi szélesség: 33-06-36N, földrajzi hosszúság: 098-33-19W, magasság: 342 m

Jelenlegi meteorológiai megfigyelések

A jelentés 38 perccel ezelõtt készült, 19:55 UTC
Délkeleti szél 7 kt, kelet-délkeleti és déli között változik
Hőmérséklet 32°C
Páratartalom 49%
Légköri nyomás 1011 hPa
Látótávolság: 16.1 km
Derült ég

METAR: KRPH 151955Z AUTO 13007KT 110V170 10SM CLR 32/20 A2986 RMK AO2 T03230198

Idő: 15:33 (20:33 UTC)


TAF: hiányzik

Meteorológiai megfigyelések és előrejelzések több, mint 4000 repülőtéren (METAR és TAF jelentéseket).

A térképen piros és sárga pontok jelzik az elérhető meteorológiai állomásokat.

Mozgassa az egeret a pont fölött, hogy megjelenjen az állomás neve.

Azután kattintson az időjárási megfigyelések és előrejelzések megtekintéséhez.

A térkép megváltoztatása: kattintson a fekete keresztel jelölt zöld gombra ráközelítéshez, a vonallal jelölt zöld gombra távolításhoz, vagy a zöld nyilakra a szomszédos térképek eléréséhez.


METAR-TAF: